createdAt,value
2023-01-29T00:01:47.110Z,5.27
2023-01-29T00:04:14.412Z,5.20
2023-01-29T00:06:41.523Z,4.99
2023-01-29T00:09:08.686Z,5.29
2023-01-29T00:11:35.792Z,4.22
2023-01-29T00:14:02.733Z,4.50
2023-01-29T00:16:29.745Z,4.75
2023-01-29T00:18:56.727Z,4.81
2023-01-29T00:21:23.671Z,4.65
2023-01-29T00:23:51.008Z,4.74
2023-01-29T00:26:18.028Z,4.74
2023-01-29T00:28:48.168Z,4.64
2023-01-29T00:31:22.233Z,4.93
2023-01-29T00:33:49.450Z,5.20
2023-01-29T00:36:18.093Z,5.27
2023-01-29T00:38:46.497Z,4.67
2023-01-29T00:41:33.022Z,4.48
2023-01-29T00:44:19.431Z,4.99
2023-01-29T00:46:46.595Z,5.13
2023-01-29T00:49:13.637Z,5.26
2023-01-29T00:51:40.616Z,5.24
2023-01-29T00:54:07.593Z,5.15
2023-01-29T00:56:35.823Z,4.17
2023-01-29T00:59:03.904Z,4.36
2023-01-29T01:01:49.378Z,4.15
2023-01-29T01:04:16.372Z,3.94
2023-01-29T01:06:43.325Z,4.49
2023-01-29T01:09:28.912Z,5.13
2023-01-29T01:11:55.947Z,5.27
2023-01-29T01:14:23.090Z,5.13
2023-01-29T01:16:50.109Z,5.17
2023-01-29T01:19:17.097Z,5.06
2023-01-29T01:21:45.581Z,5.16
2023-01-29T01:24:13.154Z,5.29
2023-01-29T01:26:40.197Z,5.41
2023-01-29T01:29:07.159Z,5.17
2023-01-29T01:31:34.168Z,5.07
2023-01-29T01:34:01.333Z,5.30
2023-01-29T01:36:28.748Z,5.27
2023-01-29T01:38:55.691Z,4.88
2023-01-29T01:41:23.361Z,4.51
2023-01-29T01:43:50.942Z,4.65
2023-01-29T01:46:17.985Z,4.92
2023-01-29T01:48:45.438Z,4.70
2023-01-29T01:51:12.459Z,4.60
2023-01-29T01:53:41.966Z,4.47
2023-01-29T01:56:14.506Z,4.80
2023-01-29T01:58:43.797Z,4.96
2023-01-29T02:01:11.405Z,5.22
2023-01-29T02:04:02.479Z,5.42
2023-01-29T02:06:48.033Z,5.09
2023-01-29T02:09:36.197Z,4.80
2023-01-29T02:12:05.456Z,4.74
2023-01-29T02:14:32.425Z,4.76
2023-01-29T02:17:01.402Z,4.98
2023-01-29T02:20:02.439Z,3.64
2023-01-29T02:22:55.407Z,4.36
2023-01-29T02:25:46.197Z,4.38
2023-01-29T02:28:14.542Z,4.61
2023-01-29T02:31:09.803Z,4.36
2023-01-29T02:33:39.866Z,4.45
2023-01-29T02:36:10.573Z,4.56
2023-01-29T02:38:43.591Z,4.95
2023-01-29T02:41:19.041Z,5.12
2023-01-29T02:44:06.003Z,4.70
2023-01-29T02:46:48.360Z,4.40
2023-01-29T02:49:31.309Z,4.55
2023-01-29T02:52:14.680Z,4.65
2023-01-29T02:54:45.716Z,4.93
2023-01-29T02:57:23.372Z,5.01
2023-01-29T03:00:07.042Z,4.80
2023-01-29T03:02:49.762Z,4.87
2023-01-29T03:05:21.902Z,4.98
2023-01-29T03:07:52.096Z,5.19
2023-01-29T03:10:33.610Z,5.20
2023-01-29T03:13:31.333Z,5.10
2023-01-29T03:16:11.790Z,4.94
2023-01-29T03:18:46.222Z,4.73
2023-01-29T03:22:12.269Z,4.81
2023-01-29T03:25:07.615Z,4.85
2023-01-29T03:28:06.723Z,4.26
2023-01-29T03:30:59.703Z,4.35
2023-01-29T03:34:05.452Z,4.67
2023-01-29T03:37:02.699Z,4.98
2023-01-29T03:39:29.731Z,4.33
2023-01-29T03:42:50.829Z,4.31
2023-01-29T03:45:39.204Z,4.11
2023-01-29T03:48:08.703Z,4.22
2023-01-29T03:50:52.407Z,3.71
2023-01-29T03:53:37.069Z,3.94
2023-01-29T03:56:07.365Z,4.54
2023-01-29T03:58:53.725Z,4.33
2023-01-29T04:01:29.613Z,4.55
2023-01-29T04:04:17.923Z,4.72
2023-01-29T04:06:45.849Z,4.47
2023-01-29T04:09:22.320Z,4.43
2023-01-29T04:12:11.339Z,4.46
2023-01-29T04:14:41.924Z,4.51
2023-01-29T04:17:16.621Z,4.61
2023-01-29T04:19:56.683Z,4.24
2023-01-29T04:22:26.321Z,4.15
2023-01-29T04:24:53.270Z,4.02
2023-01-29T04:27:35.290Z,4.25
2023-01-29T04:30:15.175Z,3.75
2023-01-29T04:32:58.211Z,2.15
2023-01-29T04:35:31.165Z,2.61
2023-01-29T04:38:33.150Z,2.93
2023-01-29T04:41:04.436Z,3.57
2023-01-29T04:43:56.208Z,3.87
2023-01-29T04:46:50.483Z,4.07
2023-01-29T04:49:29.427Z,1.62
2023-01-29T04:51:56.384Z,1.14
2023-01-29T04:54:34.891Z,1.86
2023-01-29T04:57:17.150Z,2.30
2023-01-29T04:59:48.610Z,0.86
2023-01-29T05:02:15.506Z,2.07
2023-01-29T05:04:42.497Z,2.60
2023-01-29T05:07:11.783Z,3.06
2023-01-29T05:09:38.887Z,2.41
2023-01-29T05:12:07.366Z,2.34
2023-01-29T05:14:34.414Z,3.05
2023-01-29T05:17:03.652Z,2.56
2023-01-29T05:19:30.704Z,3.23
2023-01-29T05:21:57.652Z,3.53
2023-01-29T05:24:25.642Z,3.88
2023-01-29T05:27:12.381Z,4.15
2023-01-29T05:29:43.975Z,4.54
2023-01-29T05:32:10.929Z,4.16
2023-01-29T05:34:37.910Z,4.05
2023-01-29T05:37:04.817Z,3.53
2023-01-29T05:39:31.817Z,3.59
2023-01-29T05:41:58.864Z,3.29
2023-01-29T05:44:25.895Z,3.76
2023-01-29T05:46:52.891Z,3.99
2023-01-29T05:49:20.775Z,4.11
2023-01-29T05:51:47.765Z,4.00
2023-01-29T05:54:14.765Z,2.69
2023-01-29T05:56:41.777Z,1.60
2023-01-29T05:59:08.660Z,3.12
2023-01-29T06:01:35.650Z,3.38
2023-01-29T06:04:02.752Z,3.37
2023-01-29T06:06:29.700Z,3.94
2023-01-29T06:08:56.978Z,4.19
2023-01-29T06:11:23.993Z,4.00
2023-01-29T06:13:50.990Z,4.23
2023-01-29T06:16:17.975Z,4.32
2023-01-29T06:18:44.941Z,4.46
2023-01-29T06:21:13.000Z,4.18
2023-01-29T06:23:40.147Z,3.99
2023-01-29T06:26:10.328Z,2.22
2023-01-29T06:28:37.247Z,2.98
2023-01-29T06:31:23.712Z,3.82
2023-01-29T06:33:50.955Z,3.68
2023-01-29T06:36:17.926Z,3.86
2023-01-29T06:38:44.912Z,3.83
2023-01-29T06:41:12.798Z,4.29
2023-01-29T06:43:39.807Z,4.36
2023-01-29T06:46:07.599Z,4.25
2023-01-29T06:48:34.663Z,4.60
2023-01-29T06:51:03.212Z,4.64
2023-01-29T06:53:30.293Z,3.62
2023-01-29T06:55:57.235Z,3.52
2023-01-29T06:58:24.176Z,3.52
2023-01-29T07:00:51.176Z,3.64
2023-01-29T07:03:18.363Z,3.63
2023-01-29T07:05:52.629Z,3.10
2023-01-29T07:08:22.683Z,3.20
2023-01-29T07:10:50.116Z,3.78
2023-01-29T07:13:17.216Z,3.96
2023-01-29T07:15:44.723Z,3.87
2023-01-29T07:18:14.554Z,1.99
2023-01-29T07:20:41.970Z,2.77
2023-01-29T07:23:12.750Z,3.32
2023-01-29T07:25:40.295Z,3.70
2023-01-29T07:28:07.439Z,4.13
2023-01-29T07:30:34.410Z,4.10
2023-01-29T07:33:10.343Z,3.34
2023-01-29T07:35:42.208Z,3.52
2023-01-29T07:38:09.614Z,2.97
2023-01-29T07:40:36.614Z,3.47
2023-01-29T07:43:05.424Z,3.90
2023-01-29T07:45:34.900Z,4.22
2023-01-29T07:48:01.826Z,4.52
2023-01-29T07:50:28.861Z,4.11
2023-01-29T07:52:55.875Z,3.84
2023-01-29T07:55:23.063Z,4.11
2023-01-29T07:57:56.912Z,4.64
2023-01-29T08:00:24.061Z,4.25
2023-01-29T08:02:51.195Z,4.26
2023-01-29T08:05:18.247Z,4.35
2023-01-29T08:07:49.327Z,3.86
2023-01-29T08:10:24.147Z,2.29
2023-01-29T08:13:01.013Z,1.73
2023-01-29T08:15:28.348Z,2.77
2023-01-29T08:20:42.424Z,2.65
2023-01-29T08:23:14.503Z,2.60
2023-01-29T08:25:41.643Z,2.07
2023-01-29T08:28:08.858Z,2.00
2023-01-29T08:30:35.912Z,1.96
2023-01-29T08:33:03.662Z,3.05
2023-01-29T08:35:30.646Z,3.42
2023-01-29T08:38:02.141Z,3.70
2023-01-29T08:40:33.704Z,4.00
2023-01-29T08:43:06.270Z,2.33
2023-01-29T08:45:35.621Z,2.64
2023-01-29T08:48:02.548Z,3.35
2023-01-29T08:50:30.868Z,3.67
2023-01-29T08:52:59.186Z,3.43
2023-01-29T08:55:26.700Z,3.14
2023-01-29T08:57:53.733Z,1.94
2023-01-29T09:00:21.028Z,2.06
2023-01-29T09:02:47.952Z,2.71
2023-01-29T09:05:15.588Z,1.55
2023-01-29T09:07:42.816Z,1.81
2023-01-29T09:10:10.501Z,2.94
2023-01-29T09:12:37.439Z,1.04
2023-01-29T09:15:04.687Z,0.06
2023-01-29T09:17:31.630Z,0.75
2023-01-29T09:19:58.840Z,1.22
2023-01-29T09:22:25.887Z,1.26
2023-01-29T09:24:52.888Z,0.53
2023-01-29T09:27:20.076Z,0.13
2023-01-29T09:29:47.020Z,-0.48
2023-01-29T09:32:14.696Z,-0.38
2023-01-29T09:34:42.483Z,-0.80
2023-01-29T09:37:09.452Z,-1.20
2023-01-29T09:39:36.511Z,-0.55
2023-01-29T09:42:42.030Z,-0.08
2023-01-29T09:45:11.983Z,0.44
2023-01-29T09:47:39.016Z,-0.26
2023-01-29T09:50:08.260Z,0.76
2023-01-29T09:52:46.680Z,0.32
2023-01-29T09:55:25.258Z,0.13
2023-01-29T09:58:19.377Z,0.52
2023-01-29T10:01:14.739Z,1.14
2023-01-29T10:04:12.368Z,2.44
2023-01-29T10:06:54.416Z,1.41
2023-01-29T10:09:30.513Z,0.66
2023-01-29T10:12:07.248Z,-0.18
2023-01-29T10:14:47.494Z,-0.00
2023-01-29T10:17:17.493Z,-0.20
2023-01-29T10:20:05.799Z,1.10
2023-01-29T10:22:44.957Z,0.27
2023-01-29T10:25:20.122Z,-0.47
2023-01-29T10:27:52.703Z,0.23
2023-01-29T10:30:27.521Z,0.73
2023-01-29T10:32:55.612Z,0.79
2023-01-29T10:35:24.414Z,1.53
2023-01-29T10:37:52.991Z,1.28
2023-01-29T10:40:52.372Z,2.86
2023-01-29T10:43:43.799Z,2.82
2023-01-29T10:46:31.264Z,1.46
2023-01-29T10:49:05.222Z,2.27
2023-01-29T10:51:36.505Z,2.99
2023-01-29T10:54:17.935Z,2.35
2023-01-29T10:57:05.097Z,2.91
2023-01-29T10:59:56.468Z,1.17
2023-01-29T11:02:23.491Z,2.63
2023-01-29T11:04:50.496Z,1.03
2023-01-29T11:07:18.535Z,1.50
2023-01-29T11:10:23.965Z,2.71
2023-01-29T11:12:50.940Z,3.19
2023-01-29T11:15:26.215Z,2.97
2023-01-29T11:18:03.440Z,3.08
2023-01-29T11:20:30.742Z,2.52
2023-01-29T11:22:58.264Z,2.78
2023-01-29T11:25:25.376Z,2.26
2023-01-29T11:27:56.867Z,3.20
2023-01-29T11:30:27.306Z,3.63
2023-01-29T11:33:12.963Z,3.57
2023-01-29T11:35:39.952Z,3.18
2023-01-29T11:38:26.942Z,2.69
2023-01-29T11:40:54.087Z,0.58
2023-01-29T11:43:21.098Z,0.95
2023-01-29T11:45:52.742Z,1.90
2023-01-29T11:48:26.974Z,2.15
2023-01-29T11:50:58.430Z,1.61
2023-01-29T11:53:34.146Z,1.86
2023-01-29T11:56:02.184Z,1.40
2023-01-29T11:58:30.279Z,1.85
2023-01-29T12:00:57.477Z,1.32
2023-01-29T12:03:30.100Z,1.27
2023-01-29T12:06:21.331Z,1.13
2023-01-29T12:09:16.882Z,1.54
2023-01-29T12:11:43.954Z,1.18
2023-01-29T12:14:33.407Z,1.71
2023-01-29T12:17:14.085Z,2.67
2023-01-29T12:19:44.688Z,2.25
2023-01-29T12:22:23.684Z,1.43
2023-01-29T12:24:57.658Z,2.47
2023-01-29T12:27:41.760Z,3.11
2023-01-29T12:30:22.660Z,3.30
2023-01-29T12:33:02.289Z,3.05
2023-01-29T12:35:33.589Z,3.23
2023-01-29T12:38:05.918Z,2.07
2023-01-29T12:40:43.173Z,2.55
2023-01-29T12:43:15.638Z,2.47
2023-01-29T12:45:43.780Z,2.71
2023-01-29T12:48:14.279Z,2.41
2023-01-29T12:50:41.293Z,2.66
2023-01-29T12:53:25.626Z,3.08
2023-01-29T12:55:59.335Z,2.76
2023-01-29T12:58:38.001Z,2.25
2023-01-29T13:01:28.066Z,2.17
2023-01-29T13:04:06.450Z,1.70
2023-01-29T13:06:50.963Z,1.37
2023-01-29T13:09:21.124Z,2.22
2023-01-29T13:12:05.503Z,2.28
2023-01-29T13:14:41.307Z,2.28
2023-01-29T13:17:23.448Z,2.47
2023-01-29T13:19:51.550Z,1.69
2023-01-29T13:22:48.074Z,2.24
2023-01-29T13:25:18.278Z,2.77
2023-01-29T13:27:47.766Z,3.13
2023-01-29T13:30:33.327Z,2.30
2023-01-29T13:33:10.915Z,1.90
2023-01-29T13:35:40.708Z,2.85
2023-01-29T13:38:24.978Z,3.10
2023-01-29T13:40:51.996Z,2.63
2023-01-29T13:43:20.745Z,2.42
2023-01-29T13:45:48.682Z,2.37
2023-01-29T13:48:26.545Z,2.29
2023-01-29T13:50:54.830Z,2.48
2023-01-29T13:53:29.761Z,2.32
2023-01-29T13:55:56.691Z,2.84
2023-01-29T13:58:33.022Z,2.89
2023-01-29T14:01:01.438Z,2.37
2023-01-29T14:03:56.131Z,2.44
2023-01-29T14:06:37.124Z,2.60
2023-01-29T14:09:04.347Z,2.82
2023-01-29T14:11:35.781Z,3.53
2023-01-29T14:14:02.796Z,3.19
2023-01-29T14:16:35.010Z,3.70
2023-01-29T14:19:02.767Z,3.38
2023-01-29T14:21:33.977Z,3.65
2023-01-29T14:24:16.214Z,3.88
2023-01-29T14:26:45.815Z,3.71
2023-01-29T14:29:14.417Z,3.91
2023-01-29T14:32:06.447Z,3.94
2023-01-29T14:34:41.926Z,3.87
2023-01-29T14:37:19.410Z,1.61
2023-01-29T14:39:51.042Z,2.78
2023-01-29T14:42:32.059Z,2.85
2023-01-29T14:45:21.430Z,2.60
2023-01-29T14:47:48.301Z,3.41
2023-01-29T14:50:33.366Z,3.74
2023-01-29T14:53:43.112Z,3.36
2023-01-29T14:56:21.468Z,3.66
2023-01-29T14:58:52.586Z,3.89
2023-01-29T15:01:23.555Z,4.19
2023-01-29T15:03:55.717Z,2.32
2023-01-29T15:06:29.080Z,2.31
2023-01-29T15:08:58.324Z,2.80
2023-01-29T15:11:34.174Z,2.80
2023-01-29T15:14:26.439Z,3.09
2023-01-29T15:17:17.190Z,3.22
2023-01-29T15:19:46.127Z,3.02
2023-01-29T15:22:14.522Z,2.96
2023-01-29T15:24:42.221Z,2.75
2023-01-29T15:27:17.001Z,3.16
2023-01-29T15:29:51.053Z,3.46
2023-01-29T15:32:28.450Z,3.28
2023-01-29T15:34:56.355Z,3.85
2023-01-29T15:37:27.860Z,4.43
2023-01-29T15:39:54.852Z,4.30
2023-01-29T15:42:25.738Z,4.77
2023-01-29T15:44:54.649Z,4.06
2023-01-29T15:47:27.390Z,3.67
2023-01-29T15:49:54.392Z,3.58
2023-01-29T15:52:27.537Z,3.28
2023-01-29T15:54:56.261Z,3.51
2023-01-29T15:57:35.353Z,3.34
2023-01-29T16:00:02.379Z,3.11
2023-01-29T16:02:39.716Z,3.17
2023-01-29T16:05:15.611Z,3.25
2023-01-29T16:07:43.158Z,3.96
2023-01-29T16:10:21.432Z,4.36
2023-01-29T16:12:51.611Z,4.28
2023-01-29T16:15:32.529Z,4.46
2023-01-29T16:18:00.413Z,3.00
2023-01-29T16:20:30.607Z,2.04
2023-01-29T16:22:57.537Z,2.06
2023-01-29T16:25:24.700Z,2.82
2023-01-29T16:27:51.770Z,3.50
2023-01-29T16:30:19.275Z,3.76
2023-01-29T16:32:46.322Z,4.16
2023-01-29T16:35:15.587Z,3.89
2023-01-29T16:37:46.679Z,4.24
2023-01-29T16:40:27.482Z,4.35
2023-01-29T16:43:18.060Z,4.38
2023-01-29T16:46:05.178Z,4.59
2023-01-29T16:48:35.234Z,4.18
2023-01-29T16:51:14.125Z,4.29
2023-01-29T16:53:41.158Z,4.25
2023-01-29T16:56:08.465Z,4.14
2023-01-29T16:58:35.443Z,4.37
2023-01-29T17:01:05.365Z,4.30
2023-01-29T17:03:33.499Z,4.31
2023-01-29T17:06:09.908Z,4.66
2023-01-29T17:08:36.896Z,4.43
2023-01-29T17:11:04.151Z,4.44
2023-01-29T17:13:37.177Z,4.20
2023-01-29T17:16:31.951Z,2.54
2023-01-29T17:18:59.793Z,3.48
2023-01-29T17:21:26.919Z,3.98
2023-01-29T17:23:53.950Z,4.15
2023-01-29T17:26:21.922Z,4.01
2023-01-29T17:28:49.906Z,4.23
2023-01-29T17:31:17.029Z,4.10
2023-01-29T17:33:44.198Z,3.78
2023-01-29T17:36:12.901Z,3.64
2023-01-29T17:38:40.089Z,4.09
2023-01-29T17:41:34.266Z,3.57
2023-01-29T17:44:01.303Z,2.54
2023-01-29T17:46:28.250Z,2.54
2023-01-29T17:48:55.192Z,2.64
2023-01-29T17:51:24.650Z,1.84
2023-01-29T17:53:51.982Z,2.29
2023-01-29T17:56:27.568Z,3.17
2023-01-29T17:58:54.553Z,2.63
2023-01-29T18:01:21.475Z,3.24
2023-01-29T18:03:48.521Z,3.13
2023-01-29T18:06:23.328Z,2.74
2023-01-29T18:08:50.308Z,2.71
2023-01-29T18:11:17.256Z,3.12
2023-01-29T18:13:44.246Z,3.53
2023-01-29T18:16:11.379Z,3.51
2023-01-29T18:18:38.969Z,3.55
2023-01-29T18:21:06.401Z,3.41
2023-01-29T18:23:33.431Z,2.17
2023-01-29T18:26:00.907Z,2.05
2023-01-29T18:28:27.950Z,2.13
2023-01-29T18:30:55.042Z,1.52
2023-01-29T18:33:24.182Z,1.82
2023-01-29T18:35:51.227Z,2.25
2023-01-29T18:38:18.163Z,1.91
2023-01-29T18:40:45.116Z,1.73
2023-01-29T18:43:13.352Z,1.08
2023-01-29T18:45:40.332Z,0.60
2023-01-29T18:48:07.344Z,0.32
2023-01-29T18:50:34.646Z,0.07
2023-01-29T18:53:01.606Z,-0.03
2023-01-29T18:55:28.572Z,0.84
2023-01-29T18:58:33.981Z,0.19
2023-01-29T19:00:42.918Z,1.12
2023-01-29T19:03:10.639Z,1.57
2023-01-29T19:05:37.694Z,0.95
2023-01-29T19:08:05.902Z,0.18
2023-01-29T19:10:33.208Z,1.00
2023-01-29T19:13:00.376Z,1.24
2023-01-29T19:15:27.356Z,1.65
2023-01-29T19:17:54.587Z,1.28
2023-01-29T19:20:21.772Z,1.62
2023-01-29T19:22:48.920Z,2.14
2023-01-29T19:25:16.735Z,2.58
2023-01-29T19:27:44.049Z,2.88
2023-01-29T19:30:13.031Z,3.21
2023-01-29T19:32:41.014Z,2.85
2023-01-29T19:35:08.437Z,2.96
2023-01-29T19:37:35.469Z,2.95
2023-01-29T19:40:02.857Z,2.85
2023-01-29T19:42:30.088Z,1.91
2023-01-29T19:44:57.076Z,2.16
2023-01-29T19:47:24.058Z,2.44
2023-01-29T19:49:51.275Z,2.61
2023-01-29T19:52:50.164Z,2.11
2023-01-29T19:55:18.262Z,2.43
2023-01-29T19:57:45.655Z,2.61
2023-01-29T20:00:15.790Z,2.26
2023-01-29T20:02:42.922Z,1.67
2023-01-29T20:05:13.123Z,2.14
2023-01-29T20:07:41.183Z,1.66
2023-01-29T20:10:11.424Z,-0.11
2023-01-29T20:12:38.548Z,0.31
2023-01-29T20:15:07.372Z,1.03
2023-01-29T20:17:34.411Z,0.41
2023-01-29T20:20:02.560Z,-0.10
2023-01-29T20:22:29.917Z,-0.27
2023-01-29T20:24:56.985Z,0.60
2023-01-29T20:27:23.925Z,0.19
2023-01-29T20:29:52.769Z,1.28
2023-01-29T20:32:19.875Z,2.04
2023-01-29T20:34:52.098Z,2.45
2023-01-29T20:37:19.733Z,2.99
2023-01-29T20:39:47.214Z,3.33
2023-01-29T20:42:14.169Z,1.93
2023-01-29T20:44:42.333Z,2.65
2023-01-29T20:47:09.366Z,2.70
2023-01-29T20:49:37.104Z,2.06
2023-01-29T20:52:04.022Z,1.12
2023-01-29T20:54:33.316Z,0.47
2023-01-29T20:57:00.596Z,-0.33
2023-01-29T20:59:29.110Z,-0.84
2023-01-29T21:01:56.209Z,0.23
2023-01-29T21:04:23.329Z,1.27
2023-01-29T21:06:50.576Z,0.49
2023-01-29T21:09:17.609Z,0.72
2023-01-29T21:11:47.467Z,1.21
2023-01-29T21:14:14.934Z,1.71
2023-01-29T21:16:41.980Z,2.46
2023-01-29T21:19:09.044Z,1.75
2023-01-29T21:21:36.301Z,2.29
2023-01-29T21:24:03.410Z,1.71
2023-01-29T21:26:30.452Z,1.25
2023-01-29T21:28:57.396Z,0.99
2023-01-29T21:31:24.377Z,1.71
2023-01-29T21:33:51.401Z,2.00
2023-01-29T21:36:24.423Z,2.24
2023-01-29T21:38:51.380Z,1.48
2023-01-29T21:41:18.435Z,1.77
2023-01-29T21:43:45.471Z,1.84
2023-01-29T21:46:12.597Z,2.32
2023-01-29T21:48:39.902Z,2.17
2023-01-29T21:51:06.971Z,2.55
2023-01-29T21:53:34.302Z,2.58
2023-01-29T21:56:02.093Z,2.04
2023-01-29T21:58:29.089Z,2.65
2023-01-29T22:00:56.163Z,2.70
2023-01-29T22:03:23.320Z,2.40
2023-01-29T22:05:50.671Z,2.64
2023-01-29T22:08:18.319Z,2.86
2023-01-29T22:10:45.409Z,3.09
2023-01-29T22:13:12.553Z,3.25
2023-01-29T22:15:39.529Z,3.20
2023-01-29T22:18:06.489Z,3.29
2023-01-29T22:20:33.494Z,3.33
2023-01-29T22:23:00.809Z,3.41
2023-01-29T22:25:27.946Z,3.58
2023-01-29T22:27:55.072Z,3.40
2023-01-29T22:30:23.448Z,3.52
2023-01-29T22:32:50.794Z,3.60
2023-01-29T22:35:17.842Z,3.49
2023-01-29T22:37:45.188Z,3.31
2023-01-29T22:40:13.122Z,3.58
2023-01-29T22:42:40.165Z,3.31
2023-01-29T22:45:08.105Z,3.44
2023-01-29T22:47:35.107Z,3.34
2023-01-29T22:50:02.412Z,3.45
2023-01-29T22:52:38.301Z,3.72
2023-01-29T22:55:07.861Z,3.47
2023-01-29T22:57:34.882Z,3.37
2023-01-29T23:00:02.218Z,3.44
2023-01-29T23:02:29.320Z,3.51
2023-01-29T23:04:56.390Z,3.65
2023-01-29T23:07:23.321Z,3.51
2023-01-29T23:09:50.244Z,3.66
2023-01-29T23:12:17.257Z,3.23
2023-01-29T23:14:44.202Z,3.39
2023-01-29T23:17:11.202Z,3.12
2023-01-29T23:19:38.125Z,3.09
2023-01-29T23:22:05.250Z,3.19
2023-01-29T23:24:32.325Z,3.13
2023-01-29T23:27:17.494Z,3.20
2023-01-29T23:29:46.508Z,3.01
2023-01-29T23:32:18.088Z,2.99
2023-01-29T23:34:44.859Z,2.96
2023-01-29T23:37:11.834Z,3.00
2023-01-29T23:39:38.785Z,2.81
2023-01-29T23:42:05.831Z,2.79
2023-01-29T23:44:32.812Z,2.67
2023-01-29T23:46:59.846Z,2.64
2023-01-29T23:49:26.875Z,2.76
2023-01-29T23:51:54.008Z,2.57
2023-01-29T23:54:20.904Z,2.65
2023-01-29T23:56:47.921Z,2.21
2023-01-29T23:59:15.222Z,2.20
